sensor_id;sensor_type;location;lat;lon;timestamp;P1;durP1;ratioP1;P2;durP2;ratioP2
22983;SDS011;11658;48.908;9.140;2023-03-11T05:01:03;2.93;;;1.07;;
22983;SDS011;11658;48.908;9.140;2023-03-11T05:03:28;1.60;;;0.90;;
22983;SDS011;11658;48.908;9.140;2023-03-11T05:05:54;1.43;;;1.00;;
22983;SDS011;11658;48.908;9.140;2023-03-11T05:08:24;1.73;;;1.00;;
22983;SDS011;11658;48.908;9.140;2023-03-11T05:10:52;4.10;;;1.37;;
22983;SDS011;11658;48.908;9.140;2023-03-11T05:13:18;1.57;;;1.00;;
22983;SDS011;11658;48.908;9.140;2023-03-11T05:15:48;1.23;;;1.10;;
22983;SDS011;11658;48.908;9.140;2023-03-11T05:18:17;1.90;;;1.07;;
22983;SDS011;11658;48.908;9.140;2023-03-11T05:20:42;1.90;;;1.30;;
22983;SDS011;11658;48.908;9.140;2023-03-11T05:23:08;1.50;;;1.10;;
22983;SDS011;11658;48.908;9.140;2023-03-11T05:25:34;3.00;;;1.70;;
22983;SDS011;11658;48.908;9.140;2023-03-11T05:28:00;2.20;;;1.50;;
22983;SDS011;11658;48.908;9.140;2023-03-11T05:30:29;9.07;;;2.63;;
22983;SDS011;11658;48.908;9.140;2023-03-11T05:32:54;5.37;;;2.27;;
22983;SDS011;11658;48.908;9.140;2023-03-11T05:35:20;4.13;;;1.87;;
22983;SDS011;11658;48.908;9.140;2023-03-11T05:37:46;3.80;;;1.40;;
22983;SDS011;11658;48.908;9.140;2023-03-11T05:40:14;2.57;;;1.30;;
22983;SDS011;11658;48.908;9.140;2023-03-11T05:42:40;4.30;;;1.40;;
22983;SDS011;11658;48.908;9.140;2023-03-11T05:45:06;1.83;;;1.10;;
22983;SDS011;11658;48.908;9.140;2023-03-11T05:47:36;2.93;;;1.23;;
22983;SDS011;11658;48.908;9.140;2023-03-11T05:50:02;4.40;;;1.27;;
22983;SDS011;11658;48.908;9.140;2023-03-11T05:52:28;1.53;;;1.10;;
22983;SDS011;11658;48.908;9.140;2023-03-11T05:54:56;2.90;;;1.40;;
22983;SDS011;11658;48.908;9.140;2023-03-11T05:57:22;4.60;;;1.60;;
22983;SDS011;11658;48.908;9.140;2023-03-11T05:59:48;2.57;;;1.30;;
22983;SDS011;11658;48.908;9.140;2023-03-11T06:02:13;2.47;;;1.43;;
22983;SDS011;11658;48.908;9.140;2023-03-11T06:04:39;3.77;;;1.53;;
22983;SDS011;11658;48.908;9.140;2023-03-11T06:07:08;2.03;;;1.40;;
22983;SDS011;11658;48.908;9.140;2023-03-11T06:09:36;3.30;;;1.47;;
22983;SDS011;11658;48.908;9.140;2023-03-11T06:12:02;3.80;;;1.47;;
22983;SDS011;11658;48.908;9.140;2023-03-11T06:14:29;5.37;;;1.20;;
22983;SDS011;11658;48.908;9.140;2023-03-11T06:16:57;2.63;;;1.00;;
22983;SDS011;11658;48.908;9.140;2023-03-11T06:19:23;2.10;;;1.30;;
22983;SDS011;11658;48.908;9.140;2023-03-11T06:21:49;6.10;;;1.57;;
22983;SDS011;11658;48.908;9.140;2023-03-11T06:24:15;6.23;;;1.33;;
22983;SDS011;11658;48.908;9.140;2023-03-11T06:26:43;1.63;;;1.00;;
22983;SDS011;11658;48.908;9.140;2023-03-11T06:29:13;3.87;;;1.17;;
22983;SDS011;11658;48.908;9.140;2023-03-11T06:31:39;2.90;;;1.10;;
22983;SDS011;11658;48.908;9.140;2023-03-11T06:34:05;2.60;;;1.00;;
22983;SDS011;11658;48.908;9.140;2023-03-11T06:36:31;3.03;;;1.30;;
22983;SDS011;11658;48.908;9.140;2023-03-11T06:38:57;2.20;;;1.20;;
22983;SDS011;11658;48.908;9.140;2023-03-11T06:41:23;2.97;;;1.13;;
22983;SDS011;11658;48.908;9.140;2023-03-11T06:43:48;1.63;;;1.00;;
22983;SDS011;11658;48.908;9.140;2023-03-11T06:46:16;1.23;;;0.93;;
22983;SDS011;11658;48.908;9.140;2023-03-11T06:48:43;3.30;;;1.20;;
22983;SDS011;11658;48.908;9.140;2023-03-11T06:51:09;1.40;;;0.80;;
22983;SDS011;11658;48.908;9.140;2023-03-11T06:53:35;2.77;;;1.03;;
22983;SDS011;11658;48.908;9.140;2023-03-11T06:56:05;2.57;;;1.10;;
22983;SDS011;11658;48.908;9.140;2023-03-11T06:58:31;1.47;;;1.00;;
22983;SDS011;11658;48.908;9.140;2023-03-11T07:01:02;1.43;;;0.93;;
22983;SDS011;11658;48.908;9.140;2023-03-11T07:03:29;2.47;;;1.10;;
22983;SDS011;11658;48.908;9.140;2023-03-11T07:05:56;2.17;;;1.00;;
22983;SDS011;11658;48.908;9.140;2023-03-11T07:08:22;2.77;;;1.20;;
22983;SDS011;11658;48.908;9.140;2023-03-11T07:13:48;4.17;;;1.23;;
22983;SDS011;11658;48.908;9.140;2023-03-11T07:16:15;2.73;;;1.33;;
22983;SDS011;11658;48.908;9.140;2023-03-11T07:18:43;2.67;;;1.10;;
22983;SDS011;11658;48.908;9.140;2023-03-11T07:21:10;1.37;;;0.93;;
22983;SDS011;11658;48.908;9.140;2023-03-11T07:23:40;3.23;;;1.40;;
22983;SDS011;11658;48.908;9.140;2023-03-11T07:26:07;1.87;;;1.00;;
22983;SDS011;11658;48.908;9.140;2023-03-11T07:28:34;2.53;;;1.00;;
22983;SDS011;11658;48.908;9.140;2023-03-11T07:31:04;2.03;;;1.10;;
22983;SDS011;11658;48.908;9.140;2023-03-11T07:33:38;1.90;;;1.20;;
22983;SDS011;11658;48.908;9.140;2023-03-11T07:36:04;3.23;;;1.10;;
22983;SDS011;11658;48.908;9.140;2023-03-11T07:38:35;2.27;;;1.10;;
22983;SDS011;11658;48.908;9.140;2023-03-11T07:41:01;5.53;;;1.30;;
22983;SDS011;11658;48.908;9.140;2023-03-11T07:43:26;3.23;;;0.90;;
22983;SDS011;11658;48.908;9.140;2023-03-11T07:46:00;2.37;;;1.00;;
22983;SDS011;11658;48.908;9.140;2023-03-11T07:48:29;3.90;;;0.83;;
22983;SDS011;11658;48.908;9.140;2023-03-11T07:50:59;2.27;;;1.10;;
22983;SDS011;11658;48.908;9.140;2023-03-11T07:53:26;3.37;;;1.17;;
22983;SDS011;11658;48.908;9.140;2023-03-11T07:55:55;1.97;;;1.00;;
22983;SDS011;11658;48.908;9.140;2023-03-11T07:58:22;2.87;;;1.37;;
22983;SDS011;11658;48.908;9.140;2023-03-11T08:00:48;2.20;;;1.20;;
22983;SDS011;11658;48.908;9.140;2023-03-11T08:03:13;3.10;;;1.13;;
22983;SDS011;11658;48.908;9.140;2023-03-11T08:05:39;1.80;;;1.03;;
22983;SDS011;11658;48.908;9.140;2023-03-11T08:08:04;2.00;;;0.80;;
22983;SDS011;11658;48.908;9.140;2023-03-11T08:10:30;4.00;;;1.20;;
22983;SDS011;11658;48.908;9.140;2023-03-11T08:12:56;4.13;;;1.00;;
22983;SDS011;11658;48.908;9.140;2023-03-11T08:15:21;2.93;;;1.07;;
22983;SDS011;11658;48.908;9.140;2023-03-11T08:17:47;5.57;;;1.30;;
22983;SDS011;11658;48.908;9.140;2023-03-11T08:20:12;1.80;;;1.17;;
22983;SDS011;11658;48.908;9.140;2023-03-11T08:22:38;2.47;;;1.10;;
22983;SDS011;11658;48.908;9.140;2023-03-11T08:25:04;2.53;;;1.00;;
22983;SDS011;11658;48.908;9.140;2023-03-11T08:27:30;1.73;;;1.03;;
22983;SDS011;11658;48.908;9.140;2023-03-11T08:29:56;2.90;;;1.20;;
22983;SDS011;11658;48.908;9.140;2023-03-11T08:32:22;2.13;;;1.23;;
22983;SDS011;11658;48.908;9.140;2023-03-11T08:34:48;2.67;;;1.00;;
22983;SDS011;11658;48.908;9.140;2023-03-11T08:37:13;2.40;;;1.30;;
22983;SDS011;11658;48.908;9.140;2023-03-11T08:39:39;3.30;;;1.00;;
22983;SDS011;11658;48.908;9.140;2023-03-11T08:42:05;2.87;;;1.10;;
22983;SDS011;11658;48.908;9.140;2023-03-11T08:44:30;5.20;;;1.10;;
22983;SDS011;11658;48.908;9.140;2023-03-11T08:46:56;2.57;;;1.13;;
22983;SDS011;11658;48.908;9.140;2023-03-11T08:49:21;4.00;;;0.97;;
22983;SDS011;11658;48.908;9.140;2023-03-11T08:51:47;2.23;;;1.30;;
22983;SDS011;11658;48.908;9.140;2023-03-11T08:54:13;2.63;;;1.07;;
22983;SDS011;11658;48.908;9.140;2023-03-11T08:56:38;2.13;;;1.07;;
22983;SDS011;11658;48.908;9.140;2023-03-11T08:59:04;4.90;;;1.30;;
22983;SDS011;11658;48.908;9.140;2023-03-11T09:01:30;2.30;;;0.87;;
22983;SDS011;11658;48.908;9.140;2023-03-11T09:03:55;3.13;;;1.17;;
22983;SDS011;11658;48.908;9.140;2023-03-11T09:06:21;2.53;;;1.00;;
22983;SDS011;11658;48.908;9.140;2023-03-11T09:08:48;1.80;;;1.10;;
22983;SDS011;11658;48.908;9.140;2023-03-11T09:30:50;1.90;;;0.70;;
22983;SDS011;11658;48.908;9.140;2023-03-11T09:33:16;4.67;;;1.03;;
22983;SDS011;11658;48.908;9.140;2023-03-11T09:35:41;2.20;;;0.90;;
22983;SDS011;11658;48.908;9.140;2023-03-11T09:38:07;4.27;;;1.07;;
22983;SDS011;11658;48.908;9.140;2023-03-11T09:43:38;2.03;;;0.80;;
22983;SDS011;11658;48.908;9.140;2023-03-11T09:51:37;2.17;;;0.90;;
22983;SDS011;11658;48.908;9.140;2023-03-11T09:54:09;2.50;;;1.07;;
22983;SDS011;11658;48.908;9.140;2023-03-11T09:56:36;1.27;;;0.80;;
22983;SDS011;11658;48.908;9.140;2023-03-11T09:59:04;3.17;;;0.90;;
22983;SDS011;11658;48.908;9.140;2023-03-11T10:01:50;2.07;;;1.10;;
22983;SDS011;11658;48.908;9.140;2023-03-11T10:04:20;4.97;;;1.10;;
22983;SDS011;11658;48.908;9.140;2023-03-11T10:06:51;2.37;;;0.73;;
22983;SDS011;11658;48.908;9.140;2023-03-11T10:09:29;2.90;;;1.00;;
22983;SDS011;11658;48.908;9.140;2023-03-11T10:14:51;1.67;;;1.20;;
22983;SDS011;11658;48.908;9.140;2023-03-11T10:29:24;1.80;;;1.03;;
22983;SDS011;11658;48.908;9.140;2023-03-11T10:31:49;2.67;;;1.20;;
22983;SDS011;11658;48.908;9.140;2023-03-11T10:34:25;2.40;;;0.87;;
22983;SDS011;11658;48.908;9.140;2023-03-11T10:39:27;2.53;;;0.80;;
22983;SDS011;11658;48.908;9.140;2023-03-11T10:41:59;2.10;;;1.10;;
22983;SDS011;11658;48.908;9.140;2023-03-11T10:44:33;2.20;;;0.80;;
22983;SDS011;11658;48.908;9.140;2023-03-11T10:47:04;0.83;;;0.67;;
22983;SDS011;11658;48.908;9.140;2023-03-11T10:49:31;1.07;;;0.60;;
22983;SDS011;11658;48.908;9.140;2023-03-11T10:51:57;1.03;;;0.63;;
22983;SDS011;11658;48.908;9.140;2023-03-11T10:57:00;2.30;;;1.03;;
22983;SDS011;11658;48.908;9.140;2023-03-11T10:59:44;1.57;;;1.10;;
22983;SDS011;11658;48.908;9.140;2023-03-11T11:07:43;3.30;;;1.00;;
22983;SDS011;11658;48.908;9.140;2023-03-11T11:10:27;1.57;;;0.80;;
22983;SDS011;11658;48.908;9.140;2023-03-11T11:15:40;1.47;;;0.93;;
22983;SDS011;11658;48.908;9.140;2023-03-11T11:18:17;1.87;;;0.80;;
22983;SDS011;11658;48.908;9.140;2023-03-11T11:26:06;1.20;;;0.80;;
22983;SDS011;11658;48.908;9.140;2023-03-11T11:28:38;1.07;;;0.80;;
22983;SDS011;11658;48.908;9.140;2023-03-11T11:31:05;1.63;;;1.00;;
22983;SDS011;11658;48.908;9.140;2023-03-11T11:33:48;2.17;;;0.90;;
22983;SDS011;11658;48.908;9.140;2023-03-11T11:36:16;2.47;;;1.07;;
22983;SDS011;11658;48.908;9.140;2023-03-11T11:38:42;1.17;;;0.80;;
22983;SDS011;11658;48.908;9.140;2023-03-11T11:41:09;2.27;;;0.87;;
22983;SDS011;11658;48.908;9.140;2023-03-11T11:43:41;2.10;;;0.80;;
22983;SDS011;11658;48.908;9.140;2023-03-11T11:46:14;2.73;;;0.63;;
22983;SDS011;11658;48.908;9.140;2023-03-11T11:48:49;1.57;;;0.70;;
22983;SDS011;11658;48.908;9.140;2023-03-11T11:51:30;1.70;;;0.77;;
22983;SDS011;11658;48.908;9.140;2023-03-11T11:54:03;1.57;;;0.63;;
22983;SDS011;11658;48.908;9.140;2023-03-11T11:56:43;2.80;;;0.80;;
22983;SDS011;11658;48.908;9.140;2023-03-11T11:59:12;1.47;;;0.87;;
22983;SDS011;11658;48.908;9.140;2023-03-11T12:04:27;2.80;;;0.80;;
22983;SDS011;11658;48.908;9.140;2023-03-11T12:08:08;1.33;;;0.77;;
22983;SDS011;11658;48.908;9.140;2023-03-11T12:10:22;1.23;;;0.80;;
22983;SDS011;11658;48.908;9.140;2023-03-11T12:19:02;2.03;;;0.57;;
22983;SDS011;11658;48.908;9.140;2023-03-11T12:27:02;2.00;;;0.80;;
22983;SDS011;11658;48.908;9.140;2023-03-11T12:29:35;1.83;;;0.70;;
22983;SDS011;11658;48.908;9.140;2023-03-11T12:32:07;1.97;;;0.60;;
22983;SDS011;11658;48.908;9.140;2023-03-11T12:34:43;2.60;;;0.80;;
22983;SDS011;11658;48.908;9.140;2023-03-11T12:37:12;1.47;;;0.70;;
22983;SDS011;11658;48.908;9.140;2023-03-11T12:39:40;3.13;;;0.87;;
22983;SDS011;11658;48.908;9.140;2023-03-11T12:44:35;1.87;;;0.73;;
22983;SDS011;11658;48.908;9.140;2023-03-11T12:54:36;1.70;;;0.80;;
22983;SDS011;11658;48.908;9.140;2023-03-11T13:04:50;1.40;;;0.60;;
22983;SDS011;11658;48.908;9.140;2023-03-11T13:10:02;1.43;;;0.90;;
22983;SDS011;11658;48.908;9.140;2023-03-11T13:12:50;0.90;;;0.67;;
22983;SDS011;11658;48.908;9.140;2023-03-11T13:18:01;1.87;;;0.90;;
22983;SDS011;11658;48.908;9.140;2023-03-11T13:25:40;2.17;;;0.90;;
22983;SDS011;11658;48.908;9.140;2023-03-11T13:36:09;3.30;;;0.93;;
22983;SDS011;11658;48.908;9.140;2023-03-11T13:38:55;1.23;;;0.70;;
22983;SDS011;11658;48.908;9.140;2023-03-11T13:41:43;1.13;;;0.80;;
22983;SDS011;11658;48.908;9.140;2023-03-11T13:47:31;1.40;;;0.97;;
22983;SDS011;11658;48.908;9.140;2023-03-11T13:52:08;1.47;;;0.87;;
22983;SDS011;11658;48.908;9.140;2023-03-11T13:54:42;1.80;;;0.97;;
22983;SDS011;11658;48.908;9.140;2023-03-11T13:57:19;2.23;;;1.10;;
22983;SDS011;11658;48.908;9.140;2023-03-11T13:59:55;1.67;;;0.80;;
22983;SDS011;11658;48.908;9.140;2023-03-11T14:02:23;3.60;;;1.00;;
22983;SDS011;11658;48.908;9.140;2023-03-11T14:04:52;1.17;;;0.90;;
22983;SDS011;11658;48.908;9.140;2023-03-11T14:07:39;2.23;;;0.97;;
22983;SDS011;11658;48.908;9.140;2023-03-11T14:10:24;2.50;;;0.90;;
22983;SDS011;11658;48.908;9.140;2023-03-11T14:13:04;2.37;;;0.90;;
22983;SDS011;11658;48.908;9.140;2023-03-11T14:15:36;1.30;;;0.90;;
22983;SDS011;11658;48.908;9.140;2023-03-11T14:18:21;0.77;;;0.53;;
22983;SDS011;11658;48.908;9.140;2023-03-11T14:20:53;1.83;;;0.90;;
22983;SDS011;11658;48.908;9.140;2023-03-11T14:25:44;2.73;;;1.20;;
22983;SDS011;11658;48.908;9.140;2023-03-11T14:28:19;2.03;;;1.00;;
22983;SDS011;11658;48.908;9.140;2023-03-11T14:30:58;0.87;;;0.87;;
22983;SDS011;11658;48.908;9.140;2023-03-11T14:33:25;1.47;;;0.80;;
22983;SDS011;11658;48.908;9.140;2023-03-11T14:35:52;1.50;;;1.00;;
22983;SDS011;11658;48.908;9.140;2023-03-11T14:38:24;1.83;;;0.70;;
22983;SDS011;11658;48.908;9.140;2023-03-11T14:41:09;2.77;;;1.03;;
22983;SDS011;11658;48.908;9.140;2023-03-11T14:43:41;2.93;;;0.70;;
22983;SDS011;11658;48.908;9.140;2023-03-11T14:46:12;1.63;;;0.77;;
22983;SDS011;11658;48.908;9.140;2023-03-11T14:48:43;3.07;;;0.93;;
22983;SDS011;11658;48.908;9.140;2023-03-11T14:51:13;1.03;;;0.80;;
22983;SDS011;11658;48.908;9.140;2023-03-11T14:53:45;3.27;;;0.90;;
22983;SDS011;11658;48.908;9.140;2023-03-11T14:56:35;1.20;;;0.83;;
22983;SDS011;11658;48.908;9.140;2023-03-11T15:02:04;1.27;;;0.80;;
22983;SDS011;11658;48.908;9.140;2023-03-11T15:04:51;2.33;;;1.20;;
22983;SDS011;11658;48.908;9.140;2023-03-11T15:07:20;2.30;;;1.20;;
22983;SDS011;11658;48.908;9.140;2023-03-11T15:09:45;1.93;;;1.23;;
22983;SDS011;11658;48.908;9.140;2023-03-11T15:15:00;2.03;;;1.20;;
22983;SDS011;11658;48.908;9.140;2023-03-11T15:17:26;2.03;;;1.20;;
22983;SDS011;11658;48.908;9.140;2023-03-11T15:19:56;1.87;;;0.90;;
22983;SDS011;11658;48.908;9.140;2023-03-11T15:22:23;3.23;;;1.43;;
22983;SDS011;11658;48.908;9.140;2023-03-11T15:24:52;2.23;;;1.07;;
22983;SDS011;11658;48.908;9.140;2023-03-11T15:27:32;2.23;;;1.00;;
22983;SDS011;11658;48.908;9.140;2023-03-11T15:30:00;2.63;;;1.10;;
22983;SDS011;11658;48.908;9.140;2023-03-11T15:35:27;1.80;;;1.10;;
22983;SDS011;11658;48.908;9.140;2023-03-11T15:37:48;3.00;;;1.30;;
22983;SDS011;11658;48.908;9.140;2023-03-11T15:40:25;2.43;;;1.13;;
22983;SDS011;11658;48.908;9.140;2023-03-11T15:43:11;2.70;;;1.50;;
22983;SDS011;11658;48.908;9.140;2023-03-11T15:46:07;4.07;;;1.27;;
22983;SDS011;11658;48.908;9.140;2023-03-11T15:48:34;2.07;;;0.90;;
22983;SDS011;11658;48.908;9.140;2023-03-11T15:51:00;2.23;;;1.03;;
22983;SDS011;11658;48.908;9.140;2023-03-11T15:53:26;2.17;;;1.00;;
22983;SDS011;11658;48.908;9.140;2023-03-11T15:55:53;4.27;;;1.00;;
22983;SDS011;11658;48.908;9.140;2023-03-11T15:58:25;1.73;;;0.97;;
22983;SDS011;11658;48.908;9.140;2023-03-11T16:00:53;1.27;;;1.00;;
22983;SDS011;11658;48.908;9.140;2023-03-11T16:03:23;4.53;;;1.10;;
22983;SDS011;11658;48.908;9.140;2023-03-11T16:05:48;2.73;;;0.90;;
22983;SDS011;11658;48.908;9.140;2023-03-11T16:08:14;2.97;;;1.00;;
22983;SDS011;11658;48.908;9.140;2023-03-11T16:10:40;2.80;;;2.03;;
22983;SDS011;11658;48.908;9.140;2023-03-11T16:13:09;3.40;;;1.37;;
22983;SDS011;11658;48.908;9.140;2023-03-11T16:15:38;1.00;;;0.80;;
22983;SDS011;11658;48.908;9.140;2023-03-11T16:18:05;2.33;;;1.23;;
22983;SDS011;11658;48.908;9.140;2023-03-11T16:20:35;1.27;;;1.00;;
22983;SDS011;11658;48.908;9.140;2023-03-11T16:23:03;2.83;;;1.40;;
22983;SDS011;11658;48.908;9.140;2023-03-11T16:25:32;2.63;;;1.20;;
22983;SDS011;11658;48.908;9.140;2023-03-11T16:28:00;2.00;;;1.10;;
22983;SDS011;11658;48.908;9.140;2023-03-11T16:30:27;1.77;;;1.00;;
22983;SDS011;11658;48.908;9.140;2023-03-11T16:32:54;2.73;;;1.00;;
22983;SDS011;11658;48.908;9.140;2023-03-11T16:35:20;2.60;;;1.23;;
22983;SDS011;11658;48.908;9.140;2023-03-11T16:37:46;1.67;;;1.10;;
22983;SDS011;11658;48.908;9.140;2023-03-11T16:40:13;1.47;;;0.93;;
22983;SDS011;11658;48.908;9.140;2023-03-11T16:42:41;2.03;;;1.20;;
22983;SDS011;11658;48.908;9.140;2023-03-11T16:45:08;2.90;;;1.80;;
22983;SDS011;11658;48.908;9.140;2023-03-11T16:47:35;2.90;;;1.23;;
22983;SDS011;11658;48.908;9.140;2023-03-11T16:50:00;2.67;;;1.10;;
22983;SDS011;11658;48.908;9.140;2023-03-11T16:52:26;2.17;;;1.00;;
22983;SDS011;11658;48.908;9.140;2023-03-11T16:54:51;3.17;;;1.30;;
22983;SDS011;11658;48.908;9.140;2023-03-11T16:57:17;2.27;;;1.07;;
22983;SDS011;11658;48.908;9.140;2023-03-11T16:59:43;2.70;;;1.20;;
22983;SDS011;11658;48.908;9.140;2023-03-11T17:02:09;2.27;;;1.03;;
22983;SDS011;11658;48.908;9.140;2023-03-11T17:04:36;2.00;;;0.97;;
22983;SDS011;11658;48.908;9.140;2023-03-11T17:07:05;1.40;;;1.00;;
22983;SDS011;11658;48.908;9.140;2023-03-11T17:09:32;4.07;;;1.10;;
22983;SDS011;11658;48.908;9.140;2023-03-11T17:11:58;3.13;;;1.40;;
22983;SDS011;11658;48.908;9.140;2023-03-11T17:14:24;3.13;;;1.70;;
22983;SDS011;11658;48.908;9.140;2023-03-11T17:16:50;2.27;;;1.57;;
22983;SDS011;11658;48.908;9.140;2023-03-11T17:19:15;4.10;;;1.70;;
22983;SDS011;11658;48.908;9.140;2023-03-11T17:21:41;3.20;;;1.50;;
22983;SDS011;11658;48.908;9.140;2023-03-11T17:24:07;2.67;;;1.13;;
22983;SDS011;11658;48.908;9.140;2023-03-11T17:26:34;2.23;;;1.40;;
22983;SDS011;11658;48.908;9.140;2023-03-11T17:28:59;2.57;;;1.57;;
22983;SDS011;11658;48.908;9.140;2023-03-11T17:31:25;1.80;;;1.43;;
22983;SDS011;11658;48.908;9.140;2023-03-11T17:33:51;3.93;;;1.50;;
22983;SDS011;11658;48.908;9.140;2023-03-11T17:36:17;2.83;;;1.50;;
22983;SDS011;11658;48.908;9.140;2023-03-11T17:38:44;3.10;;;1.53;;
22983;SDS011;11658;48.908;9.140;2023-03-11T17:41:11;1.97;;;1.10;;
22983;SDS011;11658;48.908;9.140;2023-03-11T17:43:39;2.43;;;1.10;;
22983;SDS011;11658;48.908;9.140;2023-03-11T17:46:05;2.70;;;1.27;;
22983;SDS011;11658;48.908;9.140;2023-03-11T17:48:31;1.47;;;1.20;;
22983;SDS011;11658;48.908;9.140;2023-03-11T17:50:57;1.83;;;1.20;;
22983;SDS011;11658;48.908;9.140;2023-03-11T17:53:23;2.63;;;1.23;;
22983;SDS011;11658;48.908;9.140;2023-03-11T17:55:49;2.33;;;1.20;;
22983;SDS011;11658;48.908;9.140;2023-03-11T17:58:14;2.80;;;1.33;;
22983;SDS011;11658;48.908;9.140;2023-03-11T18:00:40;2.20;;;1.50;;
22983;SDS011;11658;48.908;9.140;2023-03-11T18:03:05;1.97;;;1.20;;
22983;SDS011;11658;48.908;9.140;2023-03-11T18:05:31;3.43;;;1.23;;
22983;SDS011;11658;48.908;9.140;2023-03-11T18:07:56;2.70;;;1.30;;
22983;SDS011;11658;48.908;9.140;2023-03-11T18:10:22;3.03;;;1.43;;
22983;SDS011;11658;48.908;9.140;2023-03-11T18:12:48;5.13;;;2.57;;
22983;SDS011;11658;48.908;9.140;2023-03-11T18:15:13;4.20;;;2.03;;
22983;SDS011;11658;48.908;9.140;2023-03-11T18:17:43;4.40;;;1.93;;
22983;SDS011;11658;48.908;9.140;2023-03-11T18:20:10;1.90;;;1.30;;
22983;SDS011;11658;48.908;9.140;2023-03-11T18:22:37;2.73;;;1.50;;
22983;SDS011;11658;48.908;9.140;2023-03-11T18:25:04;3.33;;;2.07;;
22983;SDS011;11658;48.908;9.140;2023-03-11T18:27:33;3.63;;;2.10;;
22983;SDS011;11658;48.908;9.140;2023-03-11T18:30:03;3.17;;;1.50;;
22983;SDS011;11658;48.908;9.140;2023-03-11T18:32:29;2.03;;;1.53;;
22983;SDS011;11658;48.908;9.140;2023-03-11T18:34:57;2.67;;;1.80;;
22983;SDS011;11658;48.908;9.140;2023-03-11T18:37:23;3.40;;;1.60;;
22983;SDS011;11658;48.908;9.140;2023-03-11T18:39:51;4.07;;;2.10;;
22983;SDS011;11658;48.908;9.140;2023-03-11T18:42:17;4.67;;;2.20;;
22983;SDS011;11658;48.908;9.140;2023-03-11T18:44:45;2.37;;;1.70;;
22983;SDS011;11658;48.908;9.140;2023-03-11T18:47:11;2.57;;;1.50;;
22983;SDS011;11658;48.908;9.140;2023-03-11T18:49:36;1.97;;;1.40;;
22983;SDS011;11658;48.908;9.140;2023-03-11T18:52:02;2.33;;;1.60;;
22983;SDS011;11658;48.908;9.140;2023-03-11T18:54:27;2.87;;;1.77;;
22983;SDS011;11658;48.908;9.140;2023-03-11T18:56:53;3.60;;;1.70;;
22983;SDS011;11658;48.908;9.140;2023-03-11T18:59:19;4.07;;;2.57;;
22983;SDS011;11658;48.908;9.140;2023-03-11T19:01:44;2.53;;;2.00;;
22983;SDS011;11658;48.908;9.140;2023-03-11T19:04:10;3.03;;;1.70;;
22983;SDS011;11658;48.908;9.140;2023-03-11T19:06:36;6.97;;;4.87;;
22983;SDS011;11658;48.908;9.140;2023-03-11T19:09:01;5.53;;;2.10;;
22983;SDS011;11658;48.908;9.140;2023-03-11T19:11:29;2.30;;;1.80;;
22983;SDS011;11658;48.908;9.140;2023-03-11T19:13:55;4.50;;;1.53;;
22983;SDS011;11658;48.908;9.140;2023-03-11T19:16:21;3.17;;;1.97;;
22983;SDS011;11658;48.908;9.140;2023-03-11T19:18:49;3.27;;;1.80;;
22983;SDS011;11658;48.908;9.140;2023-03-11T19:21:16;2.43;;;1.93;;
22983;SDS011;11658;48.908;9.140;2023-03-11T19:23:42;2.53;;;1.97;;
22983;SDS011;11658;48.908;9.140;2023-03-11T19:26:08;2.50;;;1.83;;
22983;SDS011;11658;48.908;9.140;2023-03-11T19:28:34;3.60;;;2.20;;
22983;SDS011;11658;48.908;9.140;2023-03-11T19:31:00;4.10;;;2.63;;
22983;SDS011;11658;48.908;9.140;2023-03-11T19:33:25;4.00;;;2.20;;
22983;SDS011;11658;48.908;9.140;2023-03-11T19:35:52;3.80;;;2.03;;
22983;SDS011;11658;48.908;9.140;2023-03-11T19:38:19;3.93;;;2.00;;
22983;SDS011;11658;48.908;9.140;2023-03-11T19:40:49;5.17;;;2.60;;
22983;SDS011;11658;48.908;9.140;2023-03-11T19:43:23;4.33;;;2.70;;
22983;SDS011;11658;48.908;9.140;2023-03-11T19:45:50;3.33;;;2.57;;
22983;SDS011;11658;48.908;9.140;2023-03-11T19:48:16;4.50;;;2.70;;
22983;SDS011;11658;48.908;9.140;2023-03-11T19:50:42;4.17;;;2.80;;
22983;SDS011;11658;48.908;9.140;2023-03-11T19:53:08;3.20;;;2.50;;
22983;SDS011;11658;48.908;9.140;2023-03-11T19:55:33;3.33;;;2.87;;
22983;SDS011;11658;48.908;9.140;2023-03-11T19:57:59;4.97;;;2.80;;
22983;SDS011;11658;48.908;9.140;2023-03-11T20:00:24;4.03;;;3.13;;
22983;SDS011;11658;48.908;9.140;2023-03-11T20:02:53;4.17;;;3.10;;
22983;SDS011;11658;48.908;9.140;2023-03-11T20:05:20;4.67;;;3.20;;
22983;SDS011;11658;48.908;9.140;2023-03-11T20:07:46;5.73;;;4.17;;
22983;SDS011;11658;48.908;9.140;2023-03-11T20:10:11;7.50;;;3.90;;
22983;SDS011;11658;48.908;9.140;2023-03-11T20:12:37;5.70;;;4.27;;
22983;SDS011;11658;48.908;9.140;2023-03-11T20:15:02;6.10;;;3.70;;
22983;SDS011;11658;48.908;9.140;2023-03-11T20:17:28;5.57;;;3.87;;
22983;SDS011;11658;48.908;9.140;2023-03-11T20:19:54;4.20;;;2.60;;
22983;SDS011;11658;48.908;9.140;2023-03-11T20:22:19;7.10;;;2.80;;
22983;SDS011;11658;48.908;9.140;2023-03-11T20:24:45;3.33;;;2.83;;
22983;SDS011;11658;48.908;9.140;2023-03-11T20:27:11;3.50;;;2.73;;
22983;SDS011;11658;48.908;9.140;2023-03-11T20:29:36;4.20;;;2.80;;
22983;SDS011;11658;48.908;9.140;2023-03-11T20:32:03;3.67;;;2.40;;
22983;SDS011;11658;48.908;9.140;2023-03-11T20:34:29;5.37;;;2.53;;
22983;SDS011;11658;48.908;9.140;2023-03-11T20:36:54;3.63;;;2.60;;
22983;SDS011;11658;48.908;9.140;2023-03-11T20:39:20;3.33;;;2.20;;
22983;SDS011;11658;48.908;9.140;2023-03-11T20:41:45;2.80;;;2.17;;
22983;SDS011;11658;48.908;9.140;2023-03-11T20:44:11;2.43;;;1.93;;
22983;SDS011;11658;48.908;9.140;2023-03-11T20:46:38;4.50;;;2.30;;
22983;SDS011;11658;48.908;9.140;2023-03-11T20:49:04;3.50;;;2.60;;
22983;SDS011;11658;48.908;9.140;2023-03-11T20:51:29;5.20;;;2.90;;
22983;SDS011;11658;48.908;9.140;2023-03-11T20:53:55;3.63;;;2.73;;
22983;SDS011;11658;48.908;9.140;2023-03-11T20:56:22;5.90;;;2.50;;
22983;SDS011;11658;48.908;9.140;2023-03-11T20:58:49;3.20;;;2.30;;
22983;SDS011;11658;48.908;9.140;2023-03-11T21:01:22;4.40;;;2.30;;
22983;SDS011;11658;48.908;9.140;2023-03-11T21:03:53;3.90;;;2.77;;
22983;SDS011;11658;48.908;9.140;2023-03-11T21:06:22;3.90;;;2.97;;
22983;SDS011;11658;48.908;9.140;2023-03-11T21:08:52;6.43;;;2.83;;
22983;SDS011;11658;48.908;9.140;2023-03-11T21:11:19;4.83;;;2.97;;
22983;SDS011;11658;48.908;9.140;2023-03-11T21:13:45;4.83;;;2.97;;
22983;SDS011;11658;48.908;9.140;2023-03-11T21:16:11;5.83;;;3.10;;
22983;SDS011;11658;48.908;9.140;2023-03-11T21:18:37;4.37;;;3.27;;
22983;SDS011;11658;48.908;9.140;2023-03-11T21:21:03;5.10;;;3.13;;
22983;SDS011;11658;48.908;9.140;2023-03-11T21:23:32;6.53;;;3.63;;
22983;SDS011;11658;48.908;9.140;2023-03-11T21:25:58;5.47;;;3.00;;
22983;SDS011;11658;48.908;9.140;2023-03-11T21:28:25;5.43;;;3.30;;
22983;SDS011;11658;48.908;9.140;2023-03-11T21:31:01;6.37;;;3.80;;
22983;SDS011;11658;48.908;9.140;2023-03-11T21:33:29;6.10;;;3.80;;
22983;SDS011;11658;48.908;9.140;2023-03-11T21:35:55;7.83;;;4.40;;
22983;SDS011;11658;48.908;9.140;2023-03-11T21:38:23;5.93;;;3.50;;
22983;SDS011;11658;48.908;9.140;2023-03-11T21:40:49;6.07;;;3.40;;
22983;SDS011;11658;48.908;9.140;2023-03-11T21:43:18;5.33;;;2.87;;
22983;SDS011;11658;48.908;9.140;2023-03-11T21:45:44;7.03;;;3.37;;
22983;SDS011;11658;48.908;9.140;2023-03-11T21:48:10;3.63;;;2.80;;
22983;SDS011;11658;48.908;9.140;2023-03-11T21:50:37;4.80;;;3.43;;
22983;SDS011;11658;48.908;9.140;2023-03-11T21:53:04;7.23;;;3.60;;
22983;SDS011;11658;48.908;9.140;2023-03-11T21:55:30;7.97;;;4.53;;
22983;SDS011;11658;48.908;9.140;2023-03-11T21:57:56;7.33;;;5.03;;
22983;SDS011;11658;48.908;9.140;2023-03-11T22:00:22;6.73;;;4.40;;
22983;SDS011;11658;48.908;9.140;2023-03-11T22:02:47;5.73;;;4.03;;
22983;SDS011;11658;48.908;9.140;2023-03-11T22:05:13;5.37;;;3.83;;
22983;SDS011;11658;48.908;9.140;2023-03-11T22:07:39;7.70;;;4.43;;